Time;durP1;ratioP1;P1;durP2;ratioP2;P2;SDS_P1;SDS_P2;PMS_P1;PMS_P2;Temp;Humidity;BMP_temperature;BMP_pressure;BME280_temperature;BME280_humidity;BME280_pressure;Samples;Min_cycle;Max_cycle;Signal;HPM_P1;HPM_P2
2023/07/14 00:00:42;;;;;;;15.40;10.75;;;;;;;28.87;100.00;97683.38;4835643;29;20057;-65
2023/07/14 00:03:18;;;;;;;14.30;10.80;;;;;;;28.89;100.00;97681.13;4822274;29;20064;-65
2023/07/14 00:05:48;;;;;;;13.35;10.75;;;;;;;28.87;100.00;97675.19;4829243;29;20050;-64
2023/07/14 00:08:18;;;;;;;14.60;10.88;;;;;;;28.86;100.00;97679.03;4826173;29;20701;-65
2023/07/14 00:10:48;;;;;;;13.95;10.45;;;;;;;28.86;100.00;97677.13;4836393;29;20617;-65
2023/07/14 00:13:17;;;;;;;14.25;10.50;;;;;;;28.86;100.00;97687.22;4825068;29;20082;-66
2023/07/14 00:15:46;;;;;;;15.50;10.85;;;;;;;28.86;100.00;97690.75;4825112;29;20060;-65
2023/07/14 00:18:24;;;;;;;14.18;11.23;;;;;;;28.87;100.00;97699.72;4806062;29;20073;-65
2023/07/14 00:20:56;;;;;;;12.65;10.32;;;;;;;28.87;100.00;97705.97;4845001;29;20050;-65
2023/07/14 00:23:25;;;;;;;18.35;11.15;;;;;;;28.87;100.00;97697.00;4845037;29;20119;-64
2023/07/14 00:25:57;;;;;;;14.82;11.30;;;;;;;28.85;100.00;97699.28;4811797;29;20415;-65
2023/07/14 00:28:26;;;;;;;14.23;10.98;;;;;;;28.81;100.00;97693.69;4808960;29;20062;-65
2023/07/14 00:30:58;;;;;;;15.10;11.40;;;;;;;28.82;100.00;97695.28;4815871;29;20107;-66
2023/07/14 00:33:29;;;;;;;14.20;10.40;;;;;;;28.85;100.00;97704.72;4825602;29;20544;-66
2023/07/14 00:36:00;;;;;;;15.53;11.00;;;;;;;28.78;100.00;97699.81;4838876;29;20057;-66
2023/07/14 00:38:29;;;;;;;17.52;11.68;;;;;;;28.85;100.00;97707.47;4835582;29;20125;-66
2023/07/14 00:40:59;;;;;;;14.40;11.07;;;;;;;28.83;100.00;97701.53;4814215;29;20058;-64
2023/07/14 00:43:31;;;;;;;15.00;11.25;;;;;;;28.83;100.00;97715.97;4836282;29;20129;-66
2023/07/14 00:46:03;;;;;;;17.80;11.18;;;;;;;28.86;100.00;97706.31;4839841;29;20062;-67
2023/07/14 00:48:33;;;;;;;14.48;10.75;;;;;;;28.88;100.00;97707.56;4843326;29;20061;-66
2023/07/14 00:51:18;;;;;;;14.73;10.70;;;;;;;28.89;100.00;97700.19;4798447;29;20068;-66
2023/07/14 00:53:47;;;;;;;13.23;10.60;;;;;;;28.96;100.00;97698.50;4791713;29;20150;-66
2023/07/14 00:56:31;;;;;;;17.60;10.80;;;;;;;28.92;100.00;97700.31;4825111;29;20585;-66
2023/07/14 00:59:02;;;;;;;16.67;10.93;;;;;;;28.88;100.00;97714.94;4837747;29;20059;-66
2023/07/14 01:01:32;;;;;;;14.85;10.48;;;;;;;28.95;100.00;97715.19;4791310;29;20054;-64
2023/07/14 01:04:02;;;;;;;15.32;11.00;;;;;;;28.98;100.00;97709.88;4815556;29;20065;-65
2023/07/14 01:06:35;;;;;;;14.35;11.32;;;;;;;28.98;100.00;97718.06;4825282;29;20061;-65
2023/07/14 01:09:14;;;;;;;16.35;11.50;;;;;;;29.04;100.00;97713.19;4806220;29;20073;-64
2023/07/14 01:11:52;;;;;;;15.75;11.18;;;;;;;29.05;100.00;97714.78;4839166;29;20049;-66
2023/07/14 01:14:28;;;;;;;14.88;11.27;;;;;;;29.06;100.00;97710.91;4820249;29;20170;-66
2023/07/14 01:16:59;;;;;;;14.35;10.50;;;;;;;29.07;100.00;97711.72;4808289;29;20394;-65
2023/07/14 01:19:50;;;;;;;15.23;11.68;;;;;;;29.13;100.00;97713.88;4845888;29;20129;-66
2023/07/14 01:22:34;;;;;;;15.95;11.40;;;;;;;29.07;100.00;97709.78;4823354;29;20111;-65
2023/07/14 01:25:22;;;;;;;16.83;11.52;;;;;;;29.17;100.00;97717.53;4845037;29;20058;-65
2023/07/14 01:27:52;;;;;;;14.90;11.13;;;;;;;29.25;100.00;97721.31;4836719;29;20145;-66
2023/07/14 01:30:22;;;;;;;14.73;10.85;;;;;;;29.32;100.00;97719.66;4822940;29;20111;-66
2023/07/14 01:32:52;;;;;;;15.50;11.02;;;;;;;29.39;100.00;97722.59;4837086;29;20387;-65
2023/07/14 01:35:34;;;;;;;15.80;11.57;;;;;;;29.46;100.00;97719.31;4815003;29;20054;-65
2023/07/14 01:38:04;;;;;;;17.25;11.57;;;;;;;29.55;100.00;97721.94;4802209;29;20527;-65
2023/07/14 01:40:36;;;;;;;14.85;11.02;;;;;;;29.60;100.00;97721.72;4838097;29;20144;-65
2023/07/14 01:43:08;;;;;;;17.48;12.50;;;;;;;29.52;100.00;97728.88;4825132;29;20058;-66
2023/07/14 01:45:50;;;;;;;15.98;11.43;;;;;;;29.77;100.00;97721.50;4830223;29;20062;-65
2023/07/14 01:48:25;;;;;;;17.80;11.15;;;;;;;29.69;100.00;97730.59;4803676;29;20050;-66
2023/07/14 01:50:59;;;;;;;16.52;11.95;;;;;;;29.79;100.00;97725.47;4823487;29;20057;-64
2023/07/14 01:53:38;;;;;;;18.42;12.20;;;;;;;29.96;100.00;97731.88;4832705;29;20133;-66
2023/07/14 01:56:13;;;;;;;17.60;11.80;;;;;;;30.09;100.00;97726.06;4822788;29;20073;-65
2023/07/14 01:59:08;;;;;;;16.45;11.70;;;;;;;29.92;100.00;97726.28;4805748;29;20233;-66
2023/07/14 02:01:44;;;;;;;16.20;11.52;;;;;;;29.94;100.00;97723.22;4809292;29;20064;-66
2023/07/14 02:04:23;;;;;;;15.60;11.32;;;;;;;30.11;100.00;97731.97;4790116;29;20046;-65
2023/07/14 02:06:56;;;;;;;16.55;11.60;;;;;;;30.23;100.00;97726.47;4826763;29;20066;-66
2023/07/14 02:09:28;;;;;;;17.35;12.10;;;;;;;30.46;100.00;97724.06;4843667;29;20794;-65
2023/07/14 02:12:03;;;;;;;16.38;11.63;;;;;;;30.48;100.00;97730.00;4841771;29;20050;-66
2023/07/14 02:14:49;;;;;;;13.40;10.38;;;;;;;30.90;100.00;97721.41;4802476;29;20057;-66
2023/07/14 02:17:30;;;;;;;13.65;10.70;;;;;;;31.03;100.00;97726.50;4812181;29;20140;-65
2023/07/14 02:20:06;;;;;;;14.30;10.80;;;;;;;30.98;100.00;97734.91;4837100;29;20064;-66
2023/07/14 02:22:37;;;;;;;14.05;10.60;;;;;;;31.21;100.00;97738.72;4802647;29;20054;-66
2023/07/14 02:25:15;;;;;;;13.45;11.05;;;;;;;31.20;100.00;97730.88;4817761;29;20439;-66
2023/07/14 02:27:46;;;;;;;13.63;11.23;;;;;;;31.02;100.00;97737.81;4821791;29;20077;-66
2023/07/14 02:30:17;;;;;;;12.40;10.00;;;;;;;31.31;100.00;97736.59;4816216;29;20089;-66
2023/07/14 02:32:56;;;;;;;13.47;11.10;;;;;;;31.61;99.18;97737.81;4791772;29;20093;-66
2023/07/14 02:36:04;;;;;;;14.23;11.07;;;;;;;31.03;99.38;97742.91;4826147;29;20142;-66
2023/07/14 02:38:34;;;;;;;12.80;10.32;;;;;;;31.01;100.00;97737.00;4823471;29;20114;-66
2023/07/14 02:41:08;;;;;;;13.75;10.70;;;;;;;31.25;99.58;97746.25;4815970;29;20122;-66
2023/07/14 02:43:38;;;;;;;16.35;11.65;;;;;;;31.37;99.65;97751.63;4822129;29;20065;-66
2023/07/14 02:46:19;;;;;;;13.00;10.13;;;;;;;31.54;98.91;97746.63;4835533;29;20069;-66
2023/07/14 02:48:50;;;;;;;14.85;11.25;;;;;;;31.28;98.46;97751.00;4834249;29;20111;-65
2023/07/14 02:51:20;;;;;;;14.88;10.98;;;;;;;31.39;98.31;97744.66;4830643;29;20057;-66
2023/07/14 02:53:49;;;;;;;15.25;11.10;;;;;;;31.43;98.34;97745.53;4800738;29;20050;-65
2023/07/14 02:56:20;;;;;;;13.27;10.77;;;;;;;31.62;97.74;97744.88;4836011;29;20053;-65
2023/07/14 02:58:49;;;;;;;14.38;10.98;;;;;;;31.60;98.93;97741.72;4815209;29;20430;-67
2023/07/14 03:01:27;;;;;;;17.02;11.02;;;;;;;31.84;95.68;97748.94;4805773;29;20058;-66
2023/07/14 03:03:57;;;;;;;14.43;11.65;;;;;;;31.92;95.99;97756.16;4832482;29;20050;-65
2023/07/14 03:06:27;;;;;;;15.95;11.77;;;;;;;31.68;96.60;97756.38;4834009;29;20145;-66
2023/07/14 03:08:56;;;;;;;16.75;12.73;;;;;;;31.78;96.61;97756.59;4824007;29;20050;-66
2023/07/14 03:11:26;;;;;;;16.75;12.45;;;;;;;31.89;95.50;97757.69;4815023;29;20070;-66
2023/07/14 03:13:56;;;;;;;16.45;12.77;;;;;;;31.86;94.98;97763.06;4808671;29;20050;-65
2023/07/14 03:16:26;;;;;;;17.10;14.02;;;;;;;31.82;94.40;97756.72;4824445;29;20056;-66
2023/07/14 03:18:57;;;;;;;16.33;13.55;;;;;;;31.77;95.20;97763.25;4812470;29;20065;-66
2023/07/14 03:21:26;;;;;;;18.50;13.55;;;;;;;31.62;95.97;97758.56;4811826;29;20161;-66
2023/07/14 03:23:57;;;;;;;18.13;13.73;;;;;;;31.55;95.76;97758.41;4804851;29;20043;-67
2023/07/14 03:26:27;;;;;;;18.75;13.60;;;;;;;31.93;95.64;97766.78;4817909;29;20062;-66
2023/07/14 03:28:56;;;;;;;19.77;14.43;;;;;;;32.06;92.39;97757.31;4804203;29;20146;-65
2023/07/14 03:31:26;;;;;;;19.77;14.68;;;;;;;32.22;92.00;97759.25;4806802;29;20073;-66
2023/07/14 03:33:55;;;;;;;17.17;14.80;;;;;;;32.41;90.71;97762.81;4799456;29;20073;-65
2023/07/14 03:36:25;;;;;;;17.67;13.45;;;;;;;32.45;91.01;97773.84;4830594;29;20058;-66
2023/07/14 03:39:24;;;;;;;23.13;14.80;;;;;;;32.49;89.75;97775.53;4825999;29;20054;-66
2023/07/14 03:41:56;;;;;;;18.92;14.52;;;;;;;32.23;91.30;97769.03;4821279;29;20053;-65
2023/07/14 03:44:25;;;;;;;19.85;13.68;;;;;;;32.16;93.05;97766.16;4798222;29;20057;-66
2023/07/14 03:46:55;;;;;;;20.67;15.50;;;;;;;31.92;92.12;97765.19;4810001;29;20424;-66
2023/07/14 03:49:25;;;;;;;19.38;15.55;;;;;;;32.01;92.19;97773.22;4817554;29;20054;-66
2023/07/14 03:51:55;;;;;;;20.98;16.20;;;;;;;32.04;90.25;97765.06;4807594;29;20538;-65
2023/07/14 03:54:25;;;;;;;19.10;16.58;;;;;;;32.67;89.67;97770.44;4802035;29;20058;-65
2023/07/14 03:56:54;;;;;;;20.40;15.70;;;;;;;33.21;86.24;97772.34;4817774;29;20055;-66
2023/07/14 03:59:24;;;;;;;20.30;15.18;;;;;;;33.09;87.37;97765.03;4782208;29;20059;-65
2023/07/14 04:01:54;;;;;;;17.98;14.73;;;;;;;33.38;85.88;97775.41;4803773;29;20090;-65
2023/07/14 04:04:24;;;;;;;17.42;15.02;;;;;;;33.42;84.74;97779.03;4801950;29;20055;-66
2023/07/14 04:06:54;;;;;;;23.17;16.73;;;;;;;32.91;86.34;97769.38;4802553;29;20141;-66
2023/07/14 04:09:24;;;;;;;17.40;14.63;;;;;;;33.51;86.02;97773.28;4814991;29;20058;-64
2023/07/14 04:11:54;;;;;;;19.42;15.82;;;;;;;33.79;84.22;97778.53;4803545;29;20361;-65
2023/07/14 04:14:24;;;;;;;20.33;14.95;;;;;;;33.86;81.55;97769.63;4831434;29;20057;-66
2023/07/14 04:16:54;;;;;;;18.90;15.80;;;;;;;34.15;81.75;97772.44;4800498;29;20544;-66
2023/07/14 04:19:23;;;;;;;19.60;16.10;;;;;;;34.21;79.52;97775.69;4799384;29;20058;-70
2023/07/14 04:21:53;;;;;;;20.80;16.25;;;;;;;34.31;80.76;97774.25;4830267;29;20055;-66
2023/07/14 04:24:22;;;;;;;24.42;15.98;;;;;;;34.26;80.82;97775.34;4807879;29;20061;-67
2023/07/14 04:26:55;;;;;;;22.02;16.48;;;;;;;34.57;80.49;97774.22;4802347;29;20061;-66
2023/07/14 04:29:25;;;;;;;18.75;16.35;;;;;;;33.79;79.17;97781.25;4831727;29;20057;-67
2023/07/14 04:31:54;;;;;;;21.13;16.42;;;;;;;34.08;79.47;97783.31;4813161;29;20059;-66
2023/07/14 04:34:23;;;;;;;23.05;17.70;;;;;;;34.34;76.34;97790.03;4813588;29;20055;-66
2023/07/14 04:36:53;;;;;;;22.42;17.77;;;;;;;34.25;77.28;97788.34;4806937;29;20411;-66
2023/07/14 04:39:23;;;;;;;21.20;17.98;;;;;;;34.56;77.30;97789.97;4799324;29;20066;-67
2023/07/14 04:41:55;;;;;;;21.10;16.95;;;;;;;34.84;78.17;97792.28;4819461;29;20093;-66
2023/07/14 04:44:25;;;;;;;20.17;17.63;;;;;;;34.39;78.77;97800.72;4821479;29;20054;-67
2023/07/14 04:46:55;;;;;;;22.98;19.63;;;;;;;33.92;79.34;97801.09;4821218;29;20487;-66
2023/07/14 04:49:25;;;;;;;23.65;17.98;;;;;;;34.22;78.10;97789.06;4819822;29;20046;-67
2023/07/14 04:51:55;;;;;;;21.30;17.63;;;;;;;34.22;78.81;97797.31;4805228;29;20528;-66
2023/07/14 04:54:24;;;;;;;21.55;19.25;;;;;;;33.69;79.04;97788.16;4806815;29;20064;-67
2023/07/14 04:56:54;;;;;;;18.85;16.90;;;;;;;33.83;81.25;97795.84;4819784;29;20061;-66
2023/07/14 04:59:24;;;;;;;20.73;17.55;;;;;;;34.18;80.44;97795.66;4802017;29;20058;-67
2023/07/14 05:01:54;;;;;;;23.65;17.73;;;;;;;33.90;81.13;97809.72;4807156;29;20046;-69
2023/07/14 05:04:24;;;;;;;22.33;18.10;;;;;;;33.86;83.35;97811.59;4816037;29;20050;-69
2023/07/14 05:06:54;;;;;;;23.25;18.80;;;;;;;33.86;81.70;97810.84;4825268;29;20056;-66
2023/07/14 05:09:24;;;;;;;21.75;18.23;;;;;;;33.95;81.75;97800.34;4822119;29;20604;-67
2023/07/14 05:11:54;;;;;;;21.70;17.80;;;;;;;33.94;80.84;97807.03;4827573;29;20056;-68
2023/07/14 05:14:26;;;;;;;22.25;18.45;;;;;;;33.53;83.45;97803.16;4825131;29;20058;-68
2023/07/14 05:16:56;;;;;;;23.77;17.85;;;;;;;33.83;86.64;97809.59;4815969;29;20125;-67
2023/07/14 05:19:28;;;;;;;21.83;18.52;;;;;;;34.28;80.42;97803.28;4831567;29;20679;-67
2023/07/14 05:21:58;;;;;;;22.02;19.23;;;;;;;33.96;80.45;97807.44;4806997;29;21003;-67
2023/07/14 05:24:28;;;;;;;23.30;18.83;;;;;;;33.64;82.66;97807.66;4787813;29;20058;-68
2023/07/14 05:26:59;;;;;;;22.33;18.35;;;;;;;33.79;82.38;97809.53;4822679;29;20163;-68
2023/07/14 05:29:29;;;;;;;21.60;19.23;;;;;;;33.55;81.31;97814.56;4822504;29;20041;-68
2023/07/14 05:31:58;;;;;;;24.52;20.08;;;;;;;33.49;82.29;97816.81;4835228;29;20050;-69
2023/07/14 05:34:27;;;;;;;26.95;20.10;;;;;;;33.70;81.47;97817.22;4814920;29;20378;-69
2023/07/14 05:36:57;;;;;;;24.40;20.65;;;;;;;33.74;80.87;97817.28;4817801;29;20042;-69
2023/07/14 05:39:26;;;;;;;23.73;20.80;;;;;;;33.74;81.97;97811.78;4831844;29;20518;-69
2023/07/14 05:41:58;;;;;;;24.05;21.20;;;;;;;33.71;78.34;97807.03;4828621;29;20058;-69
2023/07/14 05:44:28;;;;;;;22.65;19.83;;;;;;;34.00;81.78;97809.09;4799674;29;20157;-70
2023/07/14 05:46:57;;;;;;;22.85;20.05;;;;;;;34.10;78.63;97818.69;4806808;29;20456;-68
2023/07/14 05:49:26;;;;;;;23.73;20.95;;;;;;;33.98;78.99;97808.69;4805895;29;20055;-69
2023/07/14 05:51:56;;;;;;;22.75;19.52;;;;;;;33.64;81.29;97810.41;4795645;29;20152;-69
2023/07/14 05:54:26;;;;;;;23.30;20.77;;;;;;;33.52;80.68;97802.34;4802946;29;20047;-69
2023/07/14 05:56:56;;;;;;;24.10;19.70;;;;;;;33.43;80.88;97807.28;4812628;29;20101;-69
2023/07/14 05:59:26;;;;;;;23.48;20.10;;;;;;;33.49;82.87;97810.53;4809596;29;20047;-69
2023/07/14 06:01:56;;;;;;;20.38;18.20;;;;;;;33.54;82.53;97802.00;4802852;29;20068;-69
2023/07/14 06:04:25;;;;;;;22.63;19.23;;;;;;;33.61;82.66;97797.41;4798575;29;20054;-68
2023/07/14 06:06:54;;;;;;;26.05;19.30;;;;;;;33.90;80.68;97809.72;4833980;29;20066;-69
2023/07/14 06:09:24;;;;;;;24.15;18.30;;;;;;;34.01;79.88;97804.41;4801937;29;20157;-69
2023/07/14 06:11:53;;;;;;;19.85;17.80;;;;;;;34.24;82.16;97795.00;4822881;29;20059;-69
2023/07/14 06:14:23;;;;;;;19.92;17.83;;;;;;;34.10;79.72;97800.22;4811106;29;20089;-70
2023/07/14 06:16:53;;;;;;;22.58;18.63;;;;;;;33.87;80.85;97798.66;4798894;29;20058;-68
2023/07/14 06:19:22;;;;;;;21.75;18.38;;;;;;;33.57;80.79;97798.50;4803201;29;20182;-68
2023/07/14 06:21:52;;;;;;;20.63;17.65;;;;;;;34.07;81.24;97800.97;4797397;29;20155;-68
2023/07/14 06:24:22;;;;;;;25.23;18.25;;;;;;;34.13;79.68;97798.69;4797060;29;20144;-69
2023/07/14 06:26:52;;;;;;;22.98;18.48;;;;;;;34.20;76.45;97796.91;4805141;29;20047;-68
2023/07/14 06:29:22;;;;;;;19.95;17.42;;;;;;;33.77;78.32;97791.81;4796979;29;20062;-68
2023/07/14 06:31:52;;;;;;;20.02;17.92;;;;;;;33.66;80.43;97799.09;4818903;29;20054;-69
2023/07/14 06:34:21;;;;;;;21.75;18.38;;;;;;;34.20;80.17;97796.91;4797823;29;21828;-69
2023/07/14 06:36:51;;;;;;;19.67;17.58;;;;;;;34.53;80.75;97798.13;4831439;29;20058;-69
2023/07/14 06:39:21;;;;;;;20.13;18.13;;;;;;;34.45;77.83;97791.75;4824401;29;20625;-69
2023/07/14 06:41:52;;;;;;;18.98;17.00;;;;;;;34.57;76.20;97793.47;4797148;29;20138;-69
2023/07/14 06:44:25;;;;;;;19.63;17.63;;;;;;;34.59;77.21;97796.66;4805332;29;20071;-69
2023/07/14 06:46:55;;;;;;;19.80;17.80;;;;;;;34.71;77.15;97800.00;4813518;29;20046;-67
2023/07/14 06:49:24;;;;;;;21.13;17.88;;;;;;;34.20;78.41;97793.34;4797789;29;20043;-69
2023/07/14 06:51:56;;;;;;;21.10;17.50;;;;;;;34.59;78.32;97793.91;4797773;29;20541;-68
2023/07/14 06:54:26;;;;;;;21.83;18.38;;;;;;;34.57;76.93;97801.72;4797439;29;20050;-69
2023/07/14 06:56:57;;;;;;;21.23;19.00;;;;;;;34.43;76.36;97796.84;4797407;29;20047;-69
2023/07/14 06:59:27;;;;;;;18.88;16.90;;;;;;;34.59;77.18;97791.94;4803842;29;20144;-68
2023/07/14 07:01:57;;;;;;;24.13;18.33;;;;;;;34.70;76.73;97792.09;4822889;29;20499;-69
2023/07/14 07:04:26;;;;;;;19.02;17.15;;;;;;;34.51;75.62;97787.53;4799091;29;20200;-71
2023/07/14 07:06:56;;;;;;;21.27;16.55;;;;;;;34.72;75.57;97790.59;4799352;29;20062;-70
2023/07/14 07:09:25;;;;;;;21.05;16.48;;;;;;;34.72;72.36;97787.84;4799192;29;20065;-69
2023/07/14 07:11:54;;;;;;;19.42;16.50;;;;;;;34.93;72.01;97792.00;4799948;29;20054;-68
2023/07/14 07:14:24;;;;;;;17.98;16.20;;;;;;;34.90;73.79;97784.50;4797658;29;20129;-69
2023/07/14 07:16:53;;;;;;;17.63;15.82;;;;;;;34.88;70.70;97786.84;4792954;29;20665;-67
2023/07/14 07:19:23;;;;;;;17.13;15.32;;;;;;;34.87;72.67;97777.81;4797214;29;20061;-71
2023/07/14 07:21:55;;;;;;;20.42;17.10;;;;;;;34.55;74.78;97782.06;4797048;29;20061;-69
2023/07/14 07:24:25;;;;;;;18.85;16.95;;;;;;;34.57;73.54;97769.50;4823460;29;20069;-71
2023/07/14 07:26:56;;;;;;;19.10;16.77;;;;;;;34.57;74.21;97765.97;4811971;29;20066;-68
2023/07/14 07:29:32;;;;;;;19.98;17.88;;;;;;;34.40;74.26;97772.81;4809908;29;20054;-69
2023/07/14 07:32:03;;;;;;;;;;;;;;;34.64;75.93;97769.63;4789739;29;20058;-71
2023/07/14 07:34:33;;;;;;;19.85;16.77;;;;;;;34.78;75.94;97760.00;4820114;29;19929;-69
2023/07/14 07:37:02;;;;;;;20.13;16.33;;;;;;;35.12;74.24;97765.13;4811651;29;20066;-68
2023/07/14 07:39:32;;;;;;;20.27;18.08;;;;;;;34.65;72.84;97762.16;4809655;29;20052;-69
2023/07/14 07:42:04;;;;;;;19.65;17.67;;;;;;;34.67;73.29;97760.66;4826030;29;20054;-72
2023/07/14 07:44:34;;;;;;;17.40;15.60;;;;;;;34.76;70.54;97759.56;4807158;29;20085;-68
2023/07/14 07:47:04;;;;;;;17.27;15.07;;;;;;;35.24;72.90;97753.06;4801531;29;20137;-69
2023/07/14 07:49:33;;;;;;;18.15;16.20;;;;;;;35.35;73.09;97748.47;4823806;29;20758;-68
2023/07/14 07:52:03;;;;;;;18.23;16.35;;;;;;;35.19;71.81;97747.09;4831797;29;20069;-68
2023/07/14 07:54:33;;;;;;;18.70;16.80;;;;;;;34.87;72.66;97741.25;4834956;29;20515;-69
2023/07/14 07:57:03;;;;;;;22.50;17.70;;;;;;;34.74;73.05;97742.66;4830410;29;20078;-69
2023/07/14 07:59:33;;;;;;;19.35;16.45;;;;;;;34.80;75.20;97741.94;4809916;29;20061;-69
2023/07/14 08:02:04;;;;;;;19.30;16.02;;;;;;;35.17;73.87;97743.94;4824742;29;20165;-69
2023/07/14 08:04:34;;;;;;;20.25;16.02;;;;;;;35.01;72.02;97730.38;4816475;29;20058;-69
2023/07/14 08:07:09;;;;;;;20.40;17.00;;;;;;;34.39;73.87;97731.97;4804667;29;20630;-69
2023/07/14 08:09:39;;;;;;;16.77;15.07;;;;;;;34.08;74.22;97725.59;4813682;29;20482;-68
2023/07/14 08:12:08;;;;;;;16.02;14.32;;;;;;;34.20;74.54;97730.13;4813220;29;20050;-68
2023/07/14 08:14:55;;;;;;;20.10;17.27;;;;;;;33.95;75.74;97721.47;4824683;29;20057;-68
2023/07/14 08:17:29;;;;;;;22.70;16.75;;;;;;;33.88;76.68;97721.38;4798411;29;20061;-69
2023/07/14 08:19:59;;;;;;;20.23;17.58;;;;;;;33.68;77.50;97715.16;4808091;29;20065;-70
2023/07/14 08:22:29;;;;;;;20.48;18.48;;;;;;;33.85;77.20;97713.88;4827203;29;20142;-68
2023/07/14 08:24:58;;;;;;;18.95;16.95;;;;;;;34.01;76.52;97719.19;4834401;29;20057;-69
2023/07/14 08:27:28;;;;;;;18.52;16.63;;;;;;;34.13;75.24;97708.78;4808829;29;20066;-69
2023/07/14 08:29:59;;;;;;;19.05;17.05;;;;;;;34.25;75.46;97711.34;4816261;29;20620;-69
2023/07/14 08:32:29;;;;;;;17.08;15.15;;;;;;;34.42;72.09;97701.75;4816842;29;20132;-69
2023/07/14 08:34:58;;;;;;;16.30;14.65;;;;;;;34.65;72.94;97702.41;4801918;29;20729;-69
2023/07/14 08:37:28;;;;;;;17.15;15.32;;;;;;;34.55;73.82;97692.09;4798365;29;20503;-70
2023/07/14 08:39:59;;;;;;;19.95;16.92;;;;;;;34.15;74.23;97689.97;4804970;29;20061;-70
2023/07/14 08:42:42;;;;;;;18.60;16.38;;;;;;;34.45;74.87;97694.69;4802219;29;20050;-70
2023/07/14 08:45:24;;;;;;;19.98;17.33;;;;;;;34.40;75.10;97684.03;4832828;29;20046;-70
2023/07/14 08:48:24;;;;;;;18.90;16.08;;;;;;;34.43;73.15;97675.03;4799526;29;20054;-69
2023/07/14 08:51:01;;;;;;;16.67;14.93;;;;;;;34.46;73.65;97661.34;4804622;29;20153;-70
2023/07/14 08:53:33;;;;;;;19.20;15.43;;;;;;;34.36;73.68;97663.94;4799193;29;20050;-69
2023/07/14 08:56:05;;;;;;;16.05;14.35;;;;;;;34.41;74.40;97661.66;4793968;29;20055;-70
2023/07/14 08:58:39;;;;;;;17.67;14.30;;;;;;;34.50;73.37;97653.13;4782708;29;20054;-65
2023/07/14 09:01:35;;;;;;;16.52;14.57;;;;;;;34.64;73.68;97645.03;4825687;29;20648;-65
2023/07/14 09:04:15;;;;;;;15.82;14.20;;;;;;;34.62;74.56;97653.66;4799960;29;20065;-65
2023/07/14 09:06:46;;;;;;;16.15;14.15;;;;;;;34.62;73.76;97648.16;4802313;29;20973;-63
2023/07/14 09:09:39;;;;;;;16.70;15.02;;;;;;;34.53;74.95;97649.59;4798243;29;20127;-64
2023/07/14 09:12:36;;;;;;;17.23;15.43;;;;;;;34.47;74.15;97640.91;4799575;29;20140;-65
2023/07/14 09:15:10;;;;;;;20.67;15.88;;;;;;;33.99;75.36;97633.59;4799845;29;20061;-64
2023/07/14 09:18:15;;;;;;;19.67;15.50;;;;;;;34.03;75.89;97637.97;4799690;29;20062;-66
2023/07/14 09:21:05;;;;;;;16.92;14.68;;;;;;;34.03;76.09;97626.19;4825544;29;20046;-65
2023/07/14 09:24:00;;;;;;;18.55;15.85;;;;;;;33.99;77.35;97617.88;4802329;29;20050;-66
2023/07/14 09:26:39;;;;;;;17.55;15.63;;;;;;;33.94;78.79;97617.44;4828859;29;20086;-64
2023/07/14 09:29:20;;;;;;;18.20;16.17;;;;;;;33.78;78.50;97615.63;4825885;29;20138;-64
2023/07/14 09:32:15;;;;;;;17.35;15.50;;;;;;;33.62;79.21;97594.97;4802146;29;20058;-62
2023/07/14 09:34:53;;;;;;;17.25;15.40;;;;;;;33.57;78.98;97596.06;4797758;29;20050;-63
2023/07/14 09:37:40;;;;;;;15.80;13.90;;;;;;;33.45;78.11;97590.00;4836326;29;20046;-65
2023/07/14 09:40:17;;;;;;;15.10;13.50;;;;;;;33.35;78.47;97588.69;4819223;29;20723;-65
2023/07/14 09:42:51;;;;;;;15.15;12.57;;;;;;;33.21;77.50;97580.22;4821825;29;20050;-64
2023/07/14 09:45:24;;;;;;;15.65;12.45;;;;;;;33.25;76.88;97578.31;4811669;29;20157;-64
2023/07/14 09:48:11;;;;;;;16.88;13.13;;;;;;;33.42;75.21;97575.03;4807026;29;20068;-64
2023/07/14 09:50:54;;;;;;;14.50;12.98;;;;;;;33.52;76.49;97568.94;4835626;29;20161;-63
2023/07/14 09:53:23;;;;;;;18.47;12.83;;;;;;;33.53;74.57;97558.75;4824974;29;20041;-64
2023/07/14 09:55:56;;;;;;;12.30;11.05;;;;;;;33.65;74.14;97558.50;4821772;29;20519;-64
2023/07/14 09:58:31;;;;;;;17.27;12.27;;;;;;;33.66;74.29;97557.38;4821788;29;20061;-65
2023/07/14 10:01:13;;;;;;;13.70;12.27;;;;;;;33.69;77.00;97562.91;4808955;29;20050;-65
2023/07/14 10:03:51;;;;;;;18.45;14.15;;;;;;;33.70;77.81;97559.03;4836473;29;20558;-65
2023/07/14 10:06:25;;;;;;;19.50;14.38;;;;;;;33.41;77.95;97549.53;4822777;29;20562;-64
2023/07/14 10:09:08;;;;;;;16.15;13.43;;;;;;;33.46;78.48;97548.44;4822133;29;20140;-65
2023/07/14 10:11:51;;;;;;;;;;;;;;;33.63;77.00;97552.63;4818385;29;20050;-65
2023/07/14 10:14:37;;;;;;;16.70;14.63;;;;;;;33.63;77.01;97556.16;4806149;29;20327;-65
2023/07/14 10:17:23;;;;;;;16.70;14.48;;;;;;;33.67;78.05;97548.78;4819279;29;20051;-64
2023/07/14 10:19:56;;;;;;;17.52;13.52;;;;;;;33.68;77.30;97541.34;4818835;29;20058;-64
2023/07/14 10:22:31;;;;;;;18.30;15.15;;;;;;;33.59;78.07;97536.06;4831541;29;20072;-64
2023/07/14 10:25:03;;;;;;;18.80;15.70;;;;;;;33.42;79.88;97529.16;4817975;29;20137;-66
2023/07/14 10:27:40;;;;;;;15.52;13.85;;;;;;;33.48;80.44;97529.66;4804903;29;20729;-65
2023/07/14 10:30:32;;;;;;;19.15;15.85;;;;;;;33.45;79.75;97529.59;4808216;29;20065;-64
2023/07/14 10:33:09;;;;;;;15.52;13.88;;;;;;;33.50;80.09;97530.09;4820925;29;20422;-66
2023/07/14 10:35:39;;;;;;;19.73;14.95;;;;;;;33.56;81.55;97531.31;4822248;29;20130;-63
2023/07/14 10:38:30;;;;;;;17.30;14.80;;;;;;;33.42;78.55;97520.13;4825001;29;20766;-63
2023/07/14 10:41:05;;;;;;;17.63;15.32;;;;;;;33.38;78.58;97517.34;4806141;29;20810;-64
2023/07/14 10:43:41;;;;;;;17.02;15.23;;;;;;;33.38;78.16;97517.34;4827014;29;20106;-63
2023/07/14 10:46:23;;;;;;;15.13;13.50;;;;;;;33.46;74.84;97514.72;4484428;29;10000425;-64
2023/07/14 10:49:04;;;;;;;16.88;14.27;;;;;;;33.47;75.33;97511.56;4824800;29;20049;-63
2023/07/14 10:51:48;;;;;;;18.17;14.05;;;;;;;33.51;75.00;97500.63;4811859;29;20866;-66
2023/07/14 10:54:22;;;;;;;15.80;13.43;;;;;;;33.60;74.97;97492.91;4817444;29;20046;-64
2023/07/14 10:57:21;;;;;;;20.15;14.80;;;;;;;33.51;75.47;97492.41;4815372;29;20111;-65
2023/07/14 10:59:59;;;;;;;16.40;14.65;;;;;;;33.52;75.07;97491.25;4820849;29;20046;-63
2023/07/14 11:02:41;;;;;;;15.70;13.95;;;;;;;33.51;74.29;97487.69;4842430;29;20061;-64
2023/07/14 11:05:22;;;;;;;15.85;13.25;;;;;;;33.53;74.47;97484.59;4836215;29;20167;-64
2023/07/14 11:07:53;;;;;;;15.13;13.27;;;;;;;33.59;74.75;97486.63;4837783;29;20138;-65
2023/07/14 11:10:58;;;;;;;17.23;13.32;;;;;;;33.54;73.77;97476.00;4833494;29;20053;-65
2023/07/14 11:13:34;;;;;;;15.35;13.43;;;;;;;33.37;74.59;97463.59;4819546;29;20058;-64
2023/07/14 11:16:12;;;;;;;15.38;13.80;;;;;;;33.43;74.45;97475.06;4835138;29;20057;-65
2023/07/14 11:18:41;;;;;;;18.02;14.00;;;;;;;33.43;75.26;97469.56;4820885;29;20609;-65
2023/07/14 11:21:32;;;;;;;17.20;14.73;;;;;;;33.43;76.21;97469.56;4814329;29;20118;-63
2023/07/14 11:24:22;;;;;;;18.80;15.38;;;;;;;33.50;76.53;97466.94;4814267;29;20058;-65
2023/07/14 11:27:10;;;;;;;21.58;16.55;;;;;;;33.38;75.36;97456.94;4784259;29;20050;-64
2023/07/14 11:30:03;;;;;;;18.30;14.35;;;;;;;33.50;75.97;97461.44;4835566;29;20121;-64
2023/07/14 11:32:49;;;;;;;16.98;14.18;;;;;;;33.52;76.45;97444.56;4811164;29;20043;-64
2023/07/14 11:35:35;;;;;;;20.45;15.40;;;;;;;33.50;76.38;97444.97;4831900;29;20079;-65
2023/07/14 11:38:41;;;;;;;21.20;13.73;;;;;;;33.44;74.56;97446.44;4815644;29;20054;-67
2023/07/14 11:41:14;;;;;;;18.17;15.07;;;;;;;33.46;76.07;97441.34;4812840;29;20070;-64
2023/07/14 11:43:46;;;;;;;17.42;15.52;;;;;;;33.40;75.18;97438.16;4816193;29;20763;-67
2023/07/14 11:46:21;;;;;;;16.60;14.15;;;;;;;33.36;74.72;97433.78;4823262;29;20134;-65
2023/07/14 11:48:52;;;;;;;16.00;14.13;;;;;;;33.42;75.41;97438.56;4823051;29;20574;-67